sensor_id;sensor_type;location;lat;lon;timestamp;pressure;altitude;pressure_sealevel;temperature;humidity
60355;BME280;46198;51.464;-0.066;2023-04-08T00:02:07;102324.72;;;7.84;100.00
60355;BME280;46198;51.464;-0.066;2023-04-08T00:04:35;102323.03;;;7.83;100.00
60355;BME280;46198;51.464;-0.066;2023-04-08T00:07:05;102310.53;;;7.82;100.00
60355;BME280;46198;51.464;-0.066;2023-04-08T00:09:33;102323.19;;;7.82;100.00
60355;BME280;46198;51.464;-0.066;2023-04-08T00:12:01;102324.72;;;7.84;100.00
60355;BME280;46198;51.464;-0.066;2023-04-08T00:14:29;102316.94;;;7.81;100.00
60355;BME280;46198;51.464;-0.066;2023-04-08T00:16:58;102323.16;;;7.73;100.00
60355;BME280;46198;51.464;-0.066;2023-04-08T00:19:26;102322.31;;;7.73;100.00
60355;BME280;46198;51.464;-0.066;2023-04-08T00:21:54;102322.16;;;7.66;100.00
60355;BME280;46198;51.464;-0.066;2023-04-08T00:24:22;102326.75;;;7.74;100.00
60355;BME280;46198;51.464;-0.066;2023-04-08T00:26:50;102320.97;;;7.69;100.00
60355;BME280;46198;51.464;-0.066;2023-04-08T00:29:19;102319.59;;;7.65;100.00
60355;BME280;46198;51.464;-0.066;2023-04-08T00:31:46;102317.22;;;7.62;100.00
60355;BME280;46198;51.464;-0.066;2023-04-08T00:34:16;102313.19;;;7.58;100.00
60355;BME280;46198;51.464;-0.066;2023-04-08T00:36:44;102318.03;;;7.54;100.00
60355;BME280;46198;51.464;-0.066;2023-04-08T00:39:12;102318.72;;;7.56;100.00
60355;BME280;46198;51.464;-0.066;2023-04-08T00:41:40;102318.91;;;7.54;100.00
60355;BME280;46198;51.464;-0.066;2023-04-08T00:44:08;102323.13;;;7.57;100.00
60355;BME280;46198;51.464;-0.066;2023-04-08T00:46:37;102322.94;;;7.50;100.00
60355;BME280;46198;51.464;-0.066;2023-04-08T00:49:06;102316.00;;;7.48;100.00
60355;BME280;46198;51.464;-0.066;2023-04-08T00:51:35;102318.19;;;7.44;100.00
60355;BME280;46198;51.464;-0.066;2023-04-08T00:54:03;102323.75;;;7.43;100.00
60355;BME280;46198;51.464;-0.066;2023-04-08T00:56:31;102326.78;;;7.40;100.00
60355;BME280;46198;51.464;-0.066;2023-04-08T00:59:00;102325.94;;;7.39;100.00
60355;BME280;46198;51.464;-0.066;2023-04-08T01:01:32;102325.94;;;7.39;100.00
60355;BME280;46198;51.464;-0.066;2023-04-08T01:04:06;102329.63;;;7.38;100.00
60355;BME280;46198;51.464;-0.066;2023-04-08T01:06:37;102326.25;;;7.36;100.00
60355;BME280;46198;51.464;-0.066;2023-04-08T01:09:08;102322.19;;;7.32;100.00
60355;BME280;46198;51.464;-0.066;2023-04-08T01:11:37;102320.81;;;7.28;100.00
60355;BME280;46198;51.464;-0.066;2023-04-08T01:14:07;102326.69;;;7.23;100.00
60355;BME280;46198;51.464;-0.066;2023-04-08T01:16:37;102324.47;;;7.19;100.00
60355;BME280;46198;51.464;-0.066;2023-04-08T01:19:07;102324.78;;;7.16;100.00
60355;BME280;46198;51.464;-0.066;2023-04-08T01:21:38;102316.19;;;7.12;100.00
60355;BME280;46198;51.464;-0.066;2023-04-08T01:24:08;102321.22;;;7.07;100.00
60355;BME280;46198;51.464;-0.066;2023-04-08T01:26:41;102321.34;;;7.05;100.00
60355;BME280;46198;51.464;-0.066;2023-04-08T01:29:09;102321.34;;;7.05;100.00
60355;BME280;46198;51.464;-0.066;2023-04-08T01:31:37;102327.44;;;7.07;100.00
60355;BME280;46198;51.464;-0.066;2023-04-08T01:34:06;102326.09;;;7.03;100.00
60355;BME280;46198;51.464;-0.066;2023-04-08T01:36:34;102316.47;;;7.01;100.00
60355;BME280;46198;51.464;-0.066;2023-04-08T01:39:04;102327.09;;;7.02;100.00
60355;BME280;46198;51.464;-0.066;2023-04-08T01:41:34;102324.38;;;7.02;100.00
60355;BME280;46198;51.464;-0.066;2023-04-08T01:44:04;102326.09;;;7.03;100.00
60355;BME280;46198;51.464;-0.066;2023-04-08T01:46:32;102322.38;;;7.04;100.00
60355;BME280;46198;51.464;-0.066;2023-04-08T01:49:01;102319.16;;;7.01;100.00
60355;BME280;46198;51.464;-0.066;2023-04-08T01:51:29;102322.84;;;7.00;100.00
60355;BME280;46198;51.464;-0.066;2023-04-08T01:53:58;102317.75;;;6.97;100.00
60355;BME280;46198;51.464;-0.066;2023-04-08T01:56:26;102320.09;;;6.92;100.00
60355;BME280;46198;51.464;-0.066;2023-04-08T01:58:55;102325.66;;;6.90;100.00
60355;BME280;46198;51.464;-0.066;2023-04-08T02:01:26;102322.41;;;6.86;100.00
60355;BME280;46198;51.464;-0.066;2023-04-08T02:03:56;102326.47;;;6.82;100.00
60355;BME280;46198;51.464;-0.066;2023-04-08T02:06:25;102325.94;;;6.79;100.00
60355;BME280;46198;51.464;-0.066;2023-04-08T02:08:54;102319.00;;;6.76;100.00
60355;BME280;46198;51.464;-0.066;2023-04-08T02:11:22;102318.63;;;6.71;100.00
60355;BME280;46198;51.464;-0.066;2023-04-08T02:13:50;102321.47;;;6.70;100.00
60355;BME280;46198;51.464;-0.066;2023-04-08T02:16:21;102318.41;;;6.64;100.00
60355;BME280;46198;51.464;-0.066;2023-04-08T02:18:54;102316.84;;;6.62;100.00
60355;BME280;46198;51.464;-0.066;2023-04-08T02:21:25;102315.50;;;6.58;100.00
60355;BME280;46198;51.464;-0.066;2023-04-08T02:23:55;102320.38;;;6.54;100.00
60355;BME280;46198;51.464;-0.066;2023-04-08T02:26:23;102318.97;;;6.50;100.00
60355;BME280;46198;51.464;-0.066;2023-04-08T02:28:55;102315.56;;;6.48;100.00
60355;BME280;46198;51.464;-0.066;2023-04-08T02:31:23;102313.38;;;6.43;100.00
60355;BME280;46198;51.464;-0.066;2023-04-08T02:33:54;102315.50;;;6.40;100.00
60355;BME280;46198;51.464;-0.066;2023-04-08T02:36:22;102320.22;;;6.38;100.00
60355;BME280;46198;51.464;-0.066;2023-04-08T02:38:52;102324.22;;;6.34;100.00
60355;BME280;46198;51.464;-0.066;2023-04-08T02:41:20;102311.75;;;6.33;100.00
60355;BME280;46198;51.464;-0.066;2023-04-08T02:43:48;102321.84;;;6.31;100.00
60355;BME280;46198;51.464;-0.066;2023-04-08T02:46:21;102326.53;;;6.29;100.00
60355;BME280;46198;51.464;-0.066;2023-04-08T02:48:50;102326.84;;;6.26;100.00
60355;BME280;46198;51.464;-0.066;2023-04-08T02:51:19;102332.56;;;6.22;100.00
60355;BME280;46198;51.464;-0.066;2023-04-08T02:53:47;102337.44;;;6.19;100.00
60355;BME280;46198;51.464;-0.066;2023-04-08T02:56:15;102337.72;;;6.16;100.00
60355;BME280;46198;51.464;-0.066;2023-04-08T02:58:43;102332.47;;;6.14;100.00
60355;BME280;46198;51.464;-0.066;2023-04-08T03:01:11;102340.19;;;6.09;100.00
60355;BME280;46198;51.464;-0.066;2023-04-08T03:03:39;102346.88;;;6.05;100.00
60355;BME280;46198;51.464;-0.066;2023-04-08T03:06:07;102344.47;;;6.02;100.00
60355;BME280;46198;51.464;-0.066;2023-04-08T03:08:36;102349.47;;;5.97;100.00
60355;BME280;46198;51.464;-0.066;2023-04-08T03:11:04;102347.09;;;5.94;100.00
60355;BME280;46198;51.464;-0.066;2023-04-08T03:13:32;102348.38;;;5.90;100.00
60355;BME280;46198;51.464;-0.066;2023-04-08T03:16:01;102352.22;;;5.87;100.00
60355;BME280;46198;51.464;-0.066;2023-04-08T03:18:29;102355.22;;;5.84;100.00
60355;BME280;46198;51.464;-0.066;2023-04-08T03:20:57;102352.97;;;5.80;100.00
60355;BME280;46198;51.464;-0.066;2023-04-08T03:23:25;102352.28;;;5.77;100.00
60355;BME280;46198;51.464;-0.066;2023-04-08T03:25:54;102354.00;;;5.78;100.00
60355;BME280;46198;51.464;-0.066;2023-04-08T03:28:22;102356.28;;;5.73;100.00
60355;BME280;46198;51.464;-0.066;2023-04-08T03:30:49;102362.66;;;5.72;100.00
60355;BME280;46198;51.464;-0.066;2023-04-08T03:33:17;102366.66;;;5.68;100.00
60355;BME280;46198;51.464;-0.066;2023-04-08T03:35:45;102364.56;;;5.62;100.00
60355;BME280;46198;51.464;-0.066;2023-04-08T03:38:13;102375.50;;;5.61;100.00
60355;BME280;46198;51.464;-0.066;2023-04-08T03:40:41;102378.34;;;5.59;100.00
60355;BME280;46198;51.464;-0.066;2023-04-08T03:43:10;102376.94;;;5.55;100.00
60355;BME280;46198;51.464;-0.066;2023-04-08T03:45:38;102379.78;;;5.53;100.00
60355;BME280;46198;51.464;-0.066;2023-04-08T03:48:06;102377.53;;;5.49;100.00
60355;BME280;46198;51.464;-0.066;2023-04-08T03:50:34;102384.22;;;5.45;100.00
60355;BME280;46198;51.464;-0.066;2023-04-08T03:53:02;102395.28;;;5.42;100.00
60355;BME280;46198;51.464;-0.066;2023-04-08T03:55:30;102385.94;;;5.36;100.00
60355;BME280;46198;51.464;-0.066;2023-04-08T03:57:57;102390.63;;;5.34;100.00
60355;BME280;46198;51.464;-0.066;2023-04-08T04:00:27;102391.47;;;5.34;100.00
60355;BME280;46198;51.464;-0.066;2023-04-08T04:02:55;102398.56;;;5.36;100.00
60355;BME280;46198;51.464;-0.066;2023-04-08T04:05:23;102403.69;;;5.29;100.00
60355;BME280;46198;51.464;-0.066;2023-04-08T04:07:51;102400.44;;;5.25;100.00
60355;BME280;46198;51.464;-0.066;2023-04-08T04:10:18;102393.66;;;5.21;100.00
60355;BME280;46198;51.464;-0.066;2023-04-08T04:12:46;102399.47;;;5.17;100.00
60355;BME280;46198;51.464;-0.066;2023-04-08T04:15:16;102397.94;;;5.14;100.00
60355;BME280;46198;51.464;-0.066;2023-04-08T04:17:46;102399.91;;;5.12;100.00
60355;BME280;46198;51.464;-0.066;2023-04-08T04:20:14;102400.34;;;5.07;100.00
60355;BME280;46198;51.464;-0.066;2023-04-08T04:22:42;102393.56;;;5.03;100.00
60355;BME280;46198;51.464;-0.066;2023-04-08T04:25:10;102393.69;;;5.02;100.00
60355;BME280;46198;51.464;-0.066;2023-04-08T04:27:38;102391.28;;;4.99;100.00
60355;BME280;46198;51.464;-0.066;2023-04-08T04:30:06;102405.75;;;4.98;100.00
60355;BME280;46198;51.464;-0.066;2023-04-08T04:32:36;102396.69;;;4.99;100.00
60355;BME280;46198;51.464;-0.066;2023-04-08T04:35:05;102404.19;;;4.95;100.00
60355;BME280;46198;51.464;-0.066;2023-04-08T04:37:33;102403.91;;;4.88;100.00
60355;BME280;46198;51.464;-0.066;2023-04-08T04:40:02;102414.69;;;4.88;100.00
60355;BME280;46198;51.464;-0.066;2023-04-08T04:42:30;102408.03;;;4.83;100.00
60355;BME280;46198;51.464;-0.066;2023-04-08T04:44:58;102408.31;;;4.80;100.00
60355;BME280;46198;51.464;-0.066;2023-04-08T04:47:26;102425.31;;;4.80;100.00
60355;BME280;46198;51.464;-0.066;2023-04-08T04:49:54;102424.75;;;4.77;100.00
60355;BME280;46198;51.464;-0.066;2023-04-08T04:52:23;102421.50;;;4.73;100.00
60355;BME280;46198;51.464;-0.066;2023-04-08T04:54:51;102420.78;;;4.71;100.00
60355;BME280;46198;51.464;-0.066;2023-04-08T04:57:19;102424.50;;;4.70;100.00
60355;BME280;46198;51.464;-0.066;2023-04-08T04:59:47;102422.78;;;4.69;100.00
60355;BME280;46198;51.464;-0.066;2023-04-08T05:02:15;102422.09;;;4.67;100.00
60355;BME280;46198;51.464;-0.066;2023-04-08T05:04:43;102434.09;;;4.63;100.00
60355;BME280;46198;51.464;-0.066;2023-04-08T05:07:10;102425.31;;;4.61;100.00
60355;BME280;46198;51.464;-0.066;2023-04-08T05:09:40;102428.16;;;4.59;100.00
60355;BME280;46198;51.464;-0.066;2023-04-08T05:12:07;102429.00;;;4.60;100.00
60355;BME280;46198;51.464;-0.066;2023-04-08T05:14:35;102427.31;;;4.59;100.00
60355;BME280;46198;51.464;-0.066;2023-04-08T05:17:03;102434.81;;;4.55;100.00
60355;BME280;46198;51.464;-0.066;2023-04-08T05:19:32;102445.56;;;4.55;100.00
60355;BME280;46198;51.464;-0.066;2023-04-08T05:21:59;102435.81;;;4.54;100.00
60355;BME280;46198;51.464;-0.066;2023-04-08T05:24:27;102439.47;;;4.53;100.00
60355;BME280;46198;51.464;-0.066;2023-04-08T05:26:57;102437.06;;;4.50;100.00
60355;BME280;46198;51.464;-0.066;2023-04-08T05:29:24;102441.59;;;4.50;100.00
60355;BME280;46198;51.464;-0.066;2023-04-08T05:31:53;102456.06;;;4.49;100.00
60355;BME280;46198;51.464;-0.066;2023-04-08T05:34:21;102454.50;;;4.46;100.00
60355;BME280;46198;51.464;-0.066;2023-04-08T05:36:49;102465.09;;;4.48;100.00
60355;BME280;46198;51.464;-0.066;2023-04-08T05:39:18;102468.06;;;4.44;100.00
60355;BME280;46198;51.464;-0.066;2023-04-08T05:41:46;102468.06;;;4.44;100.00
60355;BME280;46198;51.464;-0.066;2023-04-08T05:44:15;102468.22;;;4.43;100.00
60355;BME280;46198;51.464;-0.066;2023-04-08T05:46:44;102469.91;;;4.44;100.00
60355;BME280;46198;51.464;-0.066;2023-04-08T05:49:12;102470.06;;;4.42;100.00
60355;BME280;46198;51.464;-0.066;2023-04-08T05:51:41;102469.06;;;4.43;100.00
60355;BME280;46198;51.464;-0.066;2023-04-08T05:54:09;102464.53;;;4.44;100.00
60355;BME280;46198;51.464;-0.066;2023-04-08T05:56:36;102470.63;;;4.46;100.00
60355;BME280;46198;51.464;-0.066;2023-04-08T05:59:04;102479.66;;;4.45;100.00
60355;BME280;46198;51.464;-0.066;2023-04-08T06:01:34;102470.47;;;4.48;100.00
60355;BME280;46198;51.464;-0.066;2023-04-08T06:04:02;102477.28;;;4.52;100.00
60355;BME280;46198;51.464;-0.066;2023-04-08T06:06:30;102476.00;;;4.56;100.00
60355;BME280;46198;51.464;-0.066;2023-04-08T06:08:58;102475.75;;;4.59;100.00
60355;BME280;46198;51.464;-0.066;2023-04-08T06:11:26;102480.56;;;4.65;100.00
60355;BME280;46198;51.464;-0.066;2023-04-08T06:13:54;102482.97;;;4.68;100.00
60355;BME280;46198;51.464;-0.066;2023-04-08T06:16:21;102483.69;;;4.70;100.00
60355;BME280;46198;51.464;-0.066;2023-04-08T06:18:51;102480.44;;;4.76;100.00
60355;BME280;46198;51.464;-0.066;2023-04-08T06:21:19;102485.38;;;4.81;100.00
60355;BME280;46198;51.464;-0.066;2023-04-08T06:23:47;102483.38;;;4.83;100.00
60355;BME280;46198;51.464;-0.066;2023-04-08T06:26:15;102486.50;;;4.88;100.00
60355;BME280;46198;51.464;-0.066;2023-04-08T06:28:43;102494.16;;;4.93;100.00
60355;BME280;46198;51.464;-0.066;2023-04-08T06:31:11;102490.22;;;4.97;100.00
60355;BME280;46198;51.464;-0.066;2023-04-08T06:33:39;102495.03;;;5.03;100.00
60355;BME280;46198;51.464;-0.066;2023-04-08T06:36:08;102488.22;;;5.08;100.00
60355;BME280;46198;51.464;-0.066;2023-04-08T06:38:38;102504.34;;;5.18;100.00
60355;BME280;46198;51.464;-0.066;2023-04-08T06:44:50;102510.41;;;5.40;100.00
60355;BME280;46198;51.464;-0.066;2023-04-08T06:47:18;102513.94;;;5.50;100.00
60355;BME280;46198;51.464;-0.066;2023-04-08T06:49:46;102514.78;;;5.60;100.00
60355;BME280;46198;51.464;-0.066;2023-04-08T06:52:15;102508.50;;;5.69;100.00
60355;BME280;46198;51.464;-0.066;2023-04-08T06:54:43;102506.59;;;5.89;100.00
60355;BME280;46198;51.464;-0.066;2023-04-08T06:57:11;102503.84;;;6.09;100.00
60355;BME280;46198;51.464;-0.066;2023-04-08T06:59:39;102506.66;;;6.35;100.00
60355;BME280;46198;51.464;-0.066;2023-04-08T07:02:07;102516.50;;;6.54;100.00
60355;BME280;46198;51.464;-0.066;2023-04-08T07:04:35;102510.50;;;6.78;100.00
60355;BME280;46198;51.464;-0.066;2023-04-08T07:07:03;102515.59;;;6.99;100.00
60355;BME280;46198;51.464;-0.066;2023-04-08T07:09:32;102513.75;;;7.43;100.00
60355;BME280;46198;51.464;-0.066;2023-04-08T07:12:02;102519.97;;;7.88;100.00
60355;BME280;46198;51.464;-0.066;2023-04-08T07:14:30;102514.25;;;8.25;100.00
60355;BME280;46198;51.464;-0.066;2023-04-08T07:16:58;102521.50;;;8.67;100.00
60355;BME280;46198;51.464;-0.066;2023-04-08T07:19:26;102525.91;;;8.93;100.00
60355;BME280;46198;51.464;-0.066;2023-04-08T07:21:54;102517.50;;;9.37;100.00
60355;BME280;46198;51.464;-0.066;2023-04-08T07:24:23;102522.38;;;9.49;100.00
60355;BME280;46198;51.464;-0.066;2023-04-08T07:26:52;102522.56;;;9.56;100.00
60355;BME280;46198;51.464;-0.066;2023-04-08T07:29:22;102524.03;;;9.83;100.00
60355;BME280;46198;51.464;-0.066;2023-04-08T07:31:50;102530.66;;;9.72;100.00
60355;BME280;46198;51.464;-0.066;2023-04-08T07:34:18;102527.16;;;10.11;100.00
60355;BME280;46198;51.464;-0.066;2023-04-08T07:36:46;102522.81;;;10.41;100.00
60355;BME280;46198;51.464;-0.066;2023-04-08T07:39:14;102525.38;;;10.66;100.00
60355;BME280;46198;51.464;-0.066;2023-04-08T07:41:43;102526.94;;;10.60;100.00
60355;BME280;46198;51.464;-0.066;2023-04-08T07:44:12;102536.53;;;11.02;100.00
60355;BME280;46198;51.464;-0.066;2023-04-08T07:46:42;102534.75;;;11.32;100.00
60355;BME280;46198;51.464;-0.066;2023-04-08T07:49:14;102536.75;;;11.39;100.00
60355;BME280;46198;51.464;-0.066;2023-04-08T07:51:42;102534.09;;;11.68;100.00
60355;BME280;46198;51.464;-0.066;2023-04-08T07:54:10;102537.69;;;12.28;100.00
60355;BME280;46198;51.464;-0.066;2023-04-08T07:56:42;102545.19;;;12.41;100.00
60355;BME280;46198;51.464;-0.066;2023-04-08T07:59:12;102549.94;;;12.69;100.00
60355;BME280;46198;51.464;-0.066;2023-04-08T08:01:40;102554.00;;;12.58;100.00
60355;BME280;46198;51.464;-0.066;2023-04-08T08:04:08;102541.06;;;12.81;100.00
60355;BME280;46198;51.464;-0.066;2023-04-08T08:06:36;102550.16;;;12.89;100.00
60355;BME280;46198;51.464;-0.066;2023-04-08T08:09:04;102545.97;;;12.20;100.00
60355;BME280;46198;51.464;-0.066;2023-04-08T08:11:32;102553.00;;;12.44;100.00
60355;BME280;46198;51.464;-0.066;2023-04-08T08:14:00;102552.38;;;12.78;100.00
60355;BME280;46198;51.464;-0.066;2023-04-08T08:16:31;102561.03;;;13.25;100.00
60355;BME280;46198;51.464;-0.066;2023-04-08T08:18:59;102557.16;;;13.62;100.00
60355;BME280;46198;51.464;-0.066;2023-04-08T08:21:27;102546.56;;;14.09;100.00
60355;BME280;46198;51.464;-0.066;2023-04-08T08:23:55;102555.25;;;13.84;100.00
60355;BME280;46198;51.464;-0.066;2023-04-08T08:26:25;102560.22;;;14.50;100.00
60355;BME280;46198;51.464;-0.066;2023-04-08T08:28:52;102552.72;;;14.66;100.00
60355;BME280;46198;51.464;-0.066;2023-04-08T08:31:20;102559.72;;;14.75;100.00
60355;BME280;46198;51.464;-0.066;2023-04-08T08:33:50;102554.88;;;14.83;100.00
60355;BME280;46198;51.464;-0.066;2023-04-08T08:36:18;102558.34;;;15.32;100.00
60355;BME280;46198;51.464;-0.066;2023-04-08T08:38:46;102554.97;;;15.43;100.00
60355;BME280;46198;51.464;-0.066;2023-04-08T08:41:14;102554.53;;;15.06;100.00
60355;BME280;46198;51.464;-0.066;2023-04-08T08:43:41;102553.72;;;15.26;100.00
60355;BME280;46198;51.464;-0.066;2023-04-08T08:46:10;102560.44;;;15.43;100.00
60355;BME280;46198;51.464;-0.066;2023-04-08T08:48:38;102559.41;;;15.44;100.00
60355;BME280;46198;51.464;-0.066;2023-04-08T08:51:08;102559.59;;;15.36;100.00
60355;BME280;46198;51.464;-0.066;2023-04-08T08:53:36;102559.19;;;15.59;100.00
60355;BME280;46198;51.464;-0.066;2023-04-08T08:56:05;102559.84;;;15.81;100.00
60355;BME280;46198;51.464;-0.066;2023-04-08T08:58:38;102561.53;;;15.76;100.00
60355;BME280;46198;51.464;-0.066;2023-04-08T09:04:00;102565.09;;;15.63;100.00
60355;BME280;46198;51.464;-0.066;2023-04-08T09:06:34;102565.06;;;15.36;100.00
60355;BME280;46198;51.464;-0.066;2023-04-08T09:09:02;102568.88;;;15.35;100.00
60355;BME280;46198;51.464;-0.066;2023-04-08T09:11:31;102566.34;;;15.20;100.00
60355;BME280;46198;51.464;-0.066;2023-04-08T09:13:59;102573.09;;;15.31;100.00
60355;BME280;46198;51.464;-0.066;2023-04-08T09:16:27;102564.69;;;15.79;100.00
60355;BME280;46198;51.464;-0.066;2023-04-08T09:19:06;102557.81;;;16.28;100.00
60355;BME280;46198;51.464;-0.066;2023-04-08T09:21:36;102568.03;;;15.94;100.00
60355;BME280;46198;51.464;-0.066;2023-04-08T09:24:04;102557.78;;;16.48;100.00
60355;BME280;46198;51.464;-0.066;2023-04-08T09:26:32;102563.47;;;16.47;100.00
60355;BME280;46198;51.464;-0.066;2023-04-08T09:29:00;102572.56;;;16.40;100.00
60355;BME280;46198;51.464;-0.066;2023-04-08T09:31:52;102566.72;;;16.17;100.00
60355;BME280;46198;51.464;-0.066;2023-04-08T09:34:20;102562.47;;;16.28;100.00
60355;BME280;46198;51.464;-0.066;2023-04-08T09:36:50;102569.66;;;16.29;100.00
60355;BME280;46198;51.464;-0.066;2023-04-08T09:39:18;102565.09;;;15.56;100.00
60355;BME280;46198;51.464;-0.066;2023-04-08T09:41:47;102567.00;;;15.82;100.00
60355;BME280;46198;51.464;-0.066;2023-04-08T09:44:15;102565.50;;;15.60;100.00
60355;BME280;46198;51.464;-0.066;2023-04-08T09:46:46;102578.59;;;15.44;100.00
60355;BME280;46198;51.464;-0.066;2023-04-08T09:49:23;102574.34;;;15.28;100.00
60355;BME280;46198;51.464;-0.066;2023-04-08T09:51:58;102584.88;;;15.51;100.00
60355;BME280;46198;51.464;-0.066;2023-04-08T09:54:34;102573.47;;;15.28;100.00
60355;BME280;46198;51.464;-0.066;2023-04-08T09:57:07;102573.50;;;15.21;100.00
60355;BME280;46198;51.464;-0.066;2023-04-08T09:59:37;102576.81;;;15.03;100.00
60355;BME280;46198;51.464;-0.066;2023-04-08T10:02:06;102574.75;;;15.39;100.00
60355;BME280;46198;51.464;-0.066;2023-04-08T10:04:37;102593.47;;;15.15;100.00
60355;BME280;46198;51.464;-0.066;2023-04-08T10:07:07;102584.13;;;14.90;99.70
60355;BME280;46198;51.464;-0.066;2023-04-08T10:09:35;102580.34;;;14.84;100.00
60355;BME280;46198;51.464;-0.066;2023-04-08T10:12:06;102568.44;;;15.25;100.00
60355;BME280;46198;51.464;-0.066;2023-04-08T10:14:35;102580.03;;;15.27;98.84
60355;BME280;46198;51.464;-0.066;2023-04-08T10:19:49;102572.66;;;15.54;100.00
60355;BME280;46198;51.464;-0.066;2023-04-08T10:27:52;102570.28;;;14.91;93.65
60355;BME280;46198;51.464;-0.066;2023-04-08T10:33:08;102565.22;;;14.88;99.73
60355;BME280;46198;51.464;-0.066;2023-04-08T10:35:37;102563.78;;;15.05;100.00
60355;BME280;46198;51.464;-0.066;2023-04-08T10:38:07;102568.38;;;14.92;100.00
60355;BME280;46198;51.464;-0.066;2023-04-08T10:40:36;102568.03;;;15.15;100.00
60355;BME280;46198;51.464;-0.066;2023-04-08T10:43:08;102560.00;;;15.06;100.00
60355;BME280;46198;51.464;-0.066;2023-04-08T10:45:36;102565.03;;;15.03;100.00
60355;BME280;46198;51.464;-0.066;2023-04-08T10:48:11;102569.31;;;15.59;100.00
60355;BME280;46198;51.464;-0.066;2023-04-08T10:50:39;102564.25;;;15.62;98.43
60355;BME280;46198;51.464;-0.066;2023-04-08T10:53:08;102558.56;;;15.84;99.90
60355;BME280;46198;51.464;-0.066;2023-04-08T10:55:36;102550.97;;;15.79;98.89
60355;BME280;46198;51.464;-0.066;2023-04-08T10:58:05;102550.56;;;15.82;98.87
60355;BME280;46198;51.464;-0.066;2023-04-08T11:00:36;102553.94;;;15.78;97.70
60355;BME280;46198;51.464;-0.066;2023-04-08T11:03:05;102544.03;;;15.83;99.71
60355;BME280;46198;51.464;-0.066;2023-04-08T11:05:33;102537.28;;;15.86;93.02
60355;BME280;46198;51.464;-0.066;2023-04-08T11:08:02;102544.00;;;15.90;98.31
60355;BME280;46198;51.464;-0.066;2023-04-08T11:10:32;102537.28;;;15.99;92.56
60355;BME280;46198;51.464;-0.066;2023-04-08T11:13:05;102534.13;;;15.82;94.95
60355;BME280;46198;51.464;-0.066;2023-04-08T11:15:35;102538.56;;;15.70;95.87
60355;BME280;46198;51.464;-0.066;2023-04-08T11:18:04;102530.53;;;15.62;89.87
60355;BME280;46198;51.464;-0.066;2023-04-08T11:20:32;102531.59;;;15.67;89.58
60355;BME280;46198;51.464;-0.066;2023-04-08T11:23:02;102534.75;;;15.64;93.92
60355;BME280;46198;51.464;-0.066;2023-04-08T11:25:30;102534.78;;;15.44;86.80
60355;BME280;46198;51.464;-0.066;2023-04-08T11:27:58;102530.56;;;15.42;85.73
60355;BME280;46198;51.464;-0.066;2023-04-08T11:30:27;102530.31;;;15.63;92.06
60355;BME280;46198;51.464;-0.066;2023-04-08T11:32:57;102536.88;;;15.76;90.61
60355;BME280;46198;51.464;-0.066;2023-04-08T11:35:27;102530.13;;;15.51;84.69
60355;BME280;46198;51.464;-0.066;2023-04-08T11:37:55;102524.44;;;15.60;93.53
60355;BME280;46198;51.464;-0.066;2023-04-08T11:40:23;102530.13;;;15.65;87.71
60355;BME280;46198;51.464;-0.066;2023-04-08T11:42:51;102533.91;;;15.57;88.16
60355;BME280;46198;51.464;-0.066;2023-04-08T11:45:20;102530.13;;;15.25;88.29
60355;BME280;46198;51.464;-0.066;2023-04-08T11:47:48;102526.97;;;15.28;84.96
60355;BME280;46198;51.464;-0.066;2023-04-08T11:50:24;102531.84;;;15.39;87.96
60355;BME280;46198;51.464;-0.066;2023-04-08T11:52:52;102536.22;;;15.47;84.73
60355;BME280;46198;51.464;-0.066;2023-04-08T11:55:22;102526.53;;;15.64;87.31
60355;BME280;46198;51.464;-0.066;2023-04-08T11:57:50;102529.69;;;15.68;83.12
60355;BME280;46198;51.464;-0.066;2023-04-08T12:00:19;102519.59;;;15.55;82.99
60355;BME280;46198;51.464;-0.066;2023-04-08T12:02:48;102525.84;;;14.76;80.31
60355;BME280;46198;51.464;-0.066;2023-04-08T12:05:16;102509.88;;;14.86;88.04
60355;BME280;46198;51.464;-0.066;2023-04-08T12:07:46;102517.72;;;15.69;81.08
60355;BME280;46198;51.464;-0.066;2023-04-08T12:10:14;102516.34;;;16.18;79.66
60355;BME280;46198;51.464;-0.066;2023-04-08T12:15:35;102513.19;;;16.59;74.45
60355;BME280;46198;51.464;-0.066;2023-04-08T12:18:03;102504.59;;;17.19;73.66
60355;BME280;46198;51.464;-0.066;2023-04-08T12:20:32;102508.56;;;17.23;63.35
60355;BME280;46198;51.464;-0.066;2023-04-08T12:23:01;102506.91;;;17.22;62.00
60355;BME280;46198;51.464;-0.066;2023-04-08T12:25:29;102512.25;;;16.86;58.76
60355;BME280;46198;51.464;-0.066;2023-04-08T12:27:57;102511.72;;;17.02;65.23
60355;BME280;46198;51.464;-0.066;2023-04-08T12:30:25;102500.44;;;17.60;59.28
60355;BME280;46198;51.464;-0.066;2023-04-08T12:32:53;102502.03;;;18.11;60.81
60355;BME280;46198;51.464;-0.066;2023-04-08T12:35:23;102497.81;;;18.46;54.18
60355;BME280;46198;51.464;-0.066;2023-04-08T12:37:51;102503.47;;;18.81;53.73
60355;BME280;46198;51.464;-0.066;2023-04-08T12:40:21;102498.34;;;18.96;47.67
60355;BME280;46198;51.464;-0.066;2023-04-08T12:42:49;102494.78;;;18.66;41.06
60355;BME280;46198;51.464;-0.066;2023-04-08T12:45:17;102485.59;;;19.25;42.95
60355;BME280;46198;51.464;-0.066;2023-04-08T12:47:44;102488.50;;;19.42;46.16
60355;BME280;46198;51.464;-0.066;2023-04-08T12:50:12;102481.31;;;19.53;46.11
60355;BME280;46198;51.464;-0.066;2023-04-08T12:52:41;102484.56;;;19.74;45.32
60355;BME280;46198;51.464;-0.066;2023-04-08T12:55:09;102481.09;;;19.55;42.40
60355;BME280;46198;51.464;-0.066;2023-04-08T12:57:38;102485.38;;;19.51;43.02
60355;BME280;46198;51.464;-0.066;2023-04-08T13:00:07;102492.38;;;18.39;42.53
60355;BME280;46198;51.464;-0.066;2023-04-08T13:02:36;102488.97;;;18.55;48.82
60355;BME280;46198;51.464;-0.066;2023-04-08T13:05:04;102486.22;;;18.07;45.09
60355;BME280;46198;51.464;-0.066;2023-04-08T13:07:32;102482.94;;;18.35;46.68